createdAt,value
2018-11-01T00:01:25.842Z,57.50
2018-11-01T00:03:54.128Z,57.70
2018-11-01T00:06:22.347Z,58.10
2018-11-01T00:08:51.393Z,58.00
2018-11-01T00:11:19.607Z,58.00
2018-11-01T00:13:48.648Z,57.80
2018-11-01T00:16:16.892Z,57.80
2018-11-01T00:18:45.132Z,58.00
2018-11-01T00:21:13.371Z,58.50
2018-11-01T00:23:41.674Z,58.50
2018-11-01T00:26:09.911Z,58.40
2018-11-01T00:28:38.163Z,58.80
2018-11-01T00:31:06.404Z,58.60
2018-11-01T00:33:34.668Z,58.70
2018-11-01T00:36:02.905Z,58.80
2018-11-01T00:38:31.156Z,58.50
2018-11-01T00:41:00.185Z,58.70
2018-11-01T00:43:28.437Z,58.60
2018-11-01T00:45:56.686Z,58.50
2018-11-01T00:48:25.826Z,58.50
2018-11-01T00:50:54.081Z,58.40
2018-11-01T00:53:22.335Z,58.30
2018-11-01T00:55:51.370Z,59.20
2018-11-01T00:58:19.609Z,59.20
2018-11-01T01:00:48.598Z,59.30
2018-11-01T01:03:17.624Z,58.90
2018-11-01T01:05:45.867Z,58.90
2018-11-01T01:08:14.869Z,59.20
2018-11-01T01:10:43.114Z,60.00
2018-11-01T01:13:11.369Z,59.50
2018-11-01T01:15:39.606Z,59.60
2018-11-01T01:18:07.846Z,60.00
2018-11-01T01:20:36.875Z,59.10
2018-11-01T01:23:05.109Z,59.00
2018-11-01T01:25:34.109Z,59.10
2018-11-01T01:28:03.126Z,59.20
2018-11-01T01:30:31.389Z,59.20
2018-11-01T01:32:59.699Z,59.30
2018-11-01T01:35:27.986Z,59.20
2018-11-01T01:37:56.259Z,59.30
2018-11-01T01:40:24.524Z,59.60
2018-11-01T01:42:52.806Z,59.70
2018-11-01T01:45:21.129Z,60.00
2018-11-01T01:47:50.169Z,59.70
2018-11-01T01:50:18.504Z,59.70
2018-11-01T01:52:46.677Z,58.90
2018-11-01T01:55:15.749Z,59.30
2018-11-01T01:57:43.990Z,59.30
2018-11-01T02:00:12.231Z,58.80
2018-11-01T02:02:40.490Z,59.40
2018-11-01T02:05:09.499Z,59.20
2018-11-01T02:07:38.443Z,59.10
2018-11-01T02:10:06.694Z,58.80
2018-11-01T02:12:34.950Z,59.20
2018-11-01T02:15:03.199Z,59.00
2018-11-01T02:17:32.212Z,59.00
2018-11-01T02:20:00.449Z,59.00
2018-11-01T02:22:28.686Z,58.90
2018-11-01T02:24:56.946Z,58.80
2018-11-01T02:27:25.194Z,58.60
2018-11-01T02:29:53.450Z,58.70
2018-11-01T02:32:21.692Z,58.80
2018-11-01T02:34:49.949Z,58.60
2018-11-01T02:37:18.186Z,57.90
2018-11-01T02:39:47.217Z,58.20
2018-11-01T02:42:15.479Z,58.00
2018-11-01T02:44:43.751Z,58.00
2018-11-01T02:47:12.002Z,58.10
2018-11-01T02:49:41.586Z,57.90
2018-11-01T02:52:09.837Z,57.90
2018-11-01T02:54:38.118Z,57.90
2018-11-01T02:57:06.374Z,58.40
2018-11-01T02:59:34.698Z,59.00
2018-11-01T03:02:03.632Z,59.10
2018-11-01T03:04:32.650Z,59.20
2018-11-01T03:07:00.913Z,59.20
2018-11-01T03:09:29.236Z,59.20
2018-11-01T03:11:58.979Z,58.60
2018-11-01T03:14:27.230Z,58.50
2018-11-01T03:16:56.276Z,59.50
2018-11-01T03:19:24.539Z,59.40
2018-11-01T03:21:52.766Z,58.70
2018-11-01T03:24:21.793Z,58.20
2018-11-01T03:26:50.037Z,58.20
2018-11-01T03:29:19.061Z,57.80
2018-11-01T03:31:47.297Z,57.80
2018-11-01T03:34:15.592Z,57.50
2018-11-01T03:36:43.811Z,58.10
2018-11-01T03:39:12.102Z,57.80
2018-11-01T03:41:40.366Z,57.40
2018-11-01T03:44:09.369Z,57.10
2018-11-01T03:46:37.907Z,57.10
2018-11-01T03:49:07.150Z,57.90
2018-11-01T03:51:35.346Z,57.70
2018-11-01T03:54:04.362Z,58.30
2018-11-01T03:56:32.618Z,58.20
2018-11-01T03:59:01.647Z,58.50
2018-11-01T04:01:29.899Z,58.40
2018-11-01T04:03:58.230Z,58.60
2018-11-01T04:06:26.684Z,58.80
2018-11-01T04:08:54.915Z,58.20
2018-11-01T04:11:23.935Z,57.00
2018-11-01T04:13:52.887Z,57.00
2018-11-01T04:16:21.019Z,57.70
2018-11-01T04:18:49.275Z,58.10
2018-11-01T04:21:17.503Z,58.60
2018-11-01T04:23:45.779Z,58.90
2018-11-01T04:26:14.029Z,58.60
2018-11-01T04:28:42.330Z,57.60
2018-11-01T04:31:10.544Z,58.00
2018-11-01T04:33:38.899Z,58.30
2018-11-01T04:36:07.793Z,58.40
2018-11-01T04:38:36.800Z,58.70
2018-11-01T04:41:05.058Z,58.60
2018-11-01T04:43:34.090Z,58.90
2018-11-01T04:46:02.339Z,58.90
2018-11-01T04:48:30.582Z,59.00
2018-11-01T04:50:59.593Z,59.20
2018-11-01T04:53:28.602Z,59.60
2018-11-01T04:55:56.839Z,59.50
2018-11-01T04:58:25.115Z,59.50
2018-11-01T05:00:53.330Z,59.00
2018-11-01T05:03:21.616Z,58.70
2018-11-01T05:05:49.886Z,58.70
2018-11-01T05:08:18.216Z,59.20
2018-11-01T05:10:46.426Z,59.40
2018-11-01T05:13:14.682Z,59.70
2018-11-01T05:15:43.802Z,60.30
2018-11-01T05:18:12.049Z,60.30
2018-11-01T05:20:41.154Z,59.90
2018-11-01T05:23:10.156Z,59.20
2018-11-01T05:25:38.414Z,59.10
2018-11-01T05:28:06.638Z,59.50
2018-11-01T05:30:34.891Z,59.80
2018-11-01T05:33:03.144Z,59.50
2018-11-01T05:35:31.400Z,58.90
2018-11-01T05:37:59.677Z,59.50
2018-11-01T05:40:27.938Z,60.00
2018-11-01T05:42:56.199Z,60.40
2018-11-01T05:45:24.427Z,60.30
2018-11-01T05:47:52.776Z,60.40
2018-11-01T05:50:20.977Z,60.40
2018-11-01T05:52:49.225Z,60.40
2018-11-01T05:55:18.238Z,60.40
2018-11-01T05:57:46.470Z,60.40
2018-11-01T06:00:15.679Z,60.60
2018-11-01T06:02:43.922Z,60.50
2018-11-01T06:05:12.991Z,59.50
2018-11-01T06:07:41.226Z,59.50
2018-11-01T06:10:09.490Z,60.00
2018-11-01T06:12:37.822Z,60.50
2018-11-01T06:15:06.092Z,61.90
2018-11-01T06:17:34.338Z,61.60
2018-11-01T06:20:03.347Z,61.80
2018-11-01T06:22:31.632Z,61.70
2018-11-01T06:24:59.869Z,61.60
2018-11-01T06:27:28.130Z,61.70
2018-11-01T06:29:56.384Z,61.80
2018-11-01T06:32:24.633Z,61.70
2018-11-01T06:34:52.871Z,61.70
2018-11-01T06:37:22.570Z,61.80
2018-11-01T06:39:50.845Z,61.70
2018-11-01T06:42:19.085Z,61.70
2018-11-01T06:44:47.421Z,61.80
2018-11-01T06:47:15.625Z,61.80
2018-11-01T06:49:43.863Z,62.00
2018-11-01T06:52:12.896Z,61.50
2018-11-01T06:54:41.127Z,61.50
2018-11-01T06:57:10.137Z,61.70
2018-11-01T06:59:38.400Z,61.60
2018-11-01T07:02:07.395Z,62.10
2018-11-01T07:04:36.431Z,62.50
2018-11-01T07:07:04.665Z,62.30
2018-11-01T07:09:33.659Z,62.40
2018-11-01T07:12:02.689Z,61.90
2018-11-01T07:14:30.924Z,61.80
2018-11-01T07:17:00.078Z,62.30
2018-11-01T07:19:28.235Z,62.20
2018-11-01T07:21:56.478Z,62.40
2018-11-01T07:24:24.907Z,62.50
2018-11-01T07:26:53.183Z,62.70
2018-11-01T07:29:21.431Z,63.00
2018-11-01T07:31:49.656Z,63.00
2018-11-01T07:34:19.560Z,63.70
2018-11-01T07:36:47.831Z,63.70
2018-11-01T07:39:16.097Z,63.40
2018-11-01T07:41:44.318Z,63.50
2018-11-01T07:44:12.599Z,63.50
2018-11-01T07:46:40.869Z,63.20
2018-11-01T07:49:09.094Z,63.30
2018-11-01T07:51:37.377Z,63.30
2018-11-01T07:54:05.629Z,63.30
2018-11-01T07:56:33.889Z,63.20
2018-11-01T07:59:02.160Z,63.20
2018-11-01T08:01:30.391Z,63.60
2018-11-01T08:03:59.419Z,63.20
2018-11-01T08:06:27.669Z,63.20
2018-11-01T08:08:56.708Z,63.20
2018-11-01T08:11:24.940Z,63.20
2018-11-01T08:13:53.952Z,63.20
2018-11-01T08:16:22.216Z,63.20
2018-11-01T08:18:50.450Z,62.70
2018-11-01T08:21:18.793Z,63.60
2018-11-01T08:23:47.712Z,63.30
2018-11-01T08:26:16.014Z,63.20
2018-11-01T08:28:45.051Z,63.20
2018-11-01T08:31:13.297Z,63.20
2018-11-01T08:33:41.528Z,63.10
2018-11-01T08:36:09.775Z,62.80
2018-11-01T08:38:38.026Z,62.60
2018-11-01T08:41:07.039Z,62.60
2018-11-01T08:43:35.303Z,62.50
2018-11-01T08:46:03.531Z,62.50
2018-11-01T08:48:31.808Z,62.60
2018-11-01T08:51:00.040Z,63.10
2018-11-01T08:53:28.361Z,62.60
2018-11-01T08:55:56.613Z,63.10
2018-11-01T08:58:24.807Z,62.80
2018-11-01T09:00:53.067Z,62.50
2018-11-01T09:03:22.080Z,62.70
2018-11-01T09:05:51.115Z,62.90
2018-11-01T09:08:19.380Z,62.80
2018-11-01T09:10:47.621Z,63.10
2018-11-01T09:13:15.916Z,63.30
2018-11-01T09:15:44.139Z,63.80
2018-11-01T09:18:12.399Z,62.80
2018-11-01T09:20:40.634Z,62.70
2018-11-01T09:23:09.687Z,62.40
2018-11-01T09:25:37.926Z,62.40
2018-11-01T09:28:06.194Z,62.80
2018-11-01T09:30:34.455Z,62.70
2018-11-01T09:33:03.479Z,63.10
2018-11-01T09:35:31.738Z,63.00
2018-11-01T09:38:00.723Z,62.70
2018-11-01T09:40:29.071Z,62.70
2018-11-01T09:42:57.289Z,63.00
2018-11-01T09:45:25.543Z,63.40
2018-11-01T09:47:53.887Z,63.00
2018-11-01T09:50:22.820Z,62.40
2018-11-01T09:52:51.086Z,62.30
2018-11-01T09:55:19.350Z,61.90
2018-11-01T09:57:48.373Z,61.70
2018-11-01T10:00:16.650Z,61.70
2018-11-01T10:02:44.921Z,61.50
2018-11-01T10:05:13.190Z,61.50
2018-11-01T10:07:42.192Z,62.30
2018-11-01T10:10:10.725Z,62.00
2018-11-01T10:12:38.995Z,62.30
2018-11-01T10:15:07.253Z,62.90
2018-11-01T10:17:35.799Z,63.00
2018-11-01T10:20:03.803Z,61.70
2018-11-01T10:22:32.224Z,61.00
2018-11-01T10:25:00.330Z,60.50
2018-11-01T10:27:28.651Z,61.00
2018-11-01T10:29:56.851Z,60.90
2018-11-01T10:32:25.112Z,61.00
2018-11-01T10:34:54.198Z,60.90
2018-11-01T10:37:22.427Z,60.90
2018-11-01T10:39:50.691Z,60.40
2018-11-01T10:42:18.946Z,60.50
2018-11-01T10:44:47.229Z,60.40
2018-11-01T10:47:15.486Z,60.70
2018-11-01T10:49:44.514Z,59.30
2018-11-01T10:52:12.758Z,59.30
2018-11-01T10:54:41.015Z,59.00
2018-11-01T10:57:10.050Z,58.20
2018-11-01T10:59:38.318Z,58.20
2018-11-01T11:02:06.594Z,58.30
2018-11-01T11:04:34.858Z,58.40
2018-11-01T11:07:03.120Z,58.40
2018-11-01T11:09:31.394Z,58.30
2018-11-01T11:12:00.424Z,58.40
2018-11-01T11:14:28.741Z,58.40
2018-11-01T11:16:56.943Z,57.40
2018-11-01T11:19:25.233Z,57.60
2018-11-01T11:21:53.510Z,57.60
2018-11-01T11:24:21.791Z,58.10
2018-11-01T11:26:50.317Z,58.20
2018-11-01T11:29:18.574Z,58.20
2018-11-01T11:31:46.830Z,58.30
2018-11-01T11:34:15.099Z,57.50
2018-11-01T11:36:44.283Z,58.60
2018-11-01T11:39:12.588Z,57.60
2018-11-01T11:41:41.979Z,56.90
2018-11-01T11:44:10.425Z,56.90
2018-11-01T11:46:39.475Z,56.60
2018-11-01T11:49:07.746Z,56.50
2018-11-01T11:51:36.085Z,56.60
2018-11-01T11:54:04.266Z,56.60
2018-11-01T11:56:32.551Z,56.30
2018-11-01T11:59:00.806Z,56.30
2018-11-01T12:01:29.057Z,56.40
2018-11-01T12:03:58.147Z,56.50
2018-11-01T12:06:26.570Z,56.40
2018-11-01T12:08:54.635Z,56.40
2018-11-01T12:11:22.919Z,56.20
2018-11-01T12:13:51.251Z,56.10
2018-11-01T12:16:20.267Z,55.30
2018-11-01T12:18:48.530Z,55.30
2018-11-01T12:21:16.806Z,54.60
2018-11-01T12:23:45.841Z,55.50
2018-11-01T12:26:14.412Z,55.50
2018-11-01T12:28:42.905Z,55.20
2018-11-01T12:31:11.015Z,54.70
2018-11-01T12:33:39.263Z,55.50
2018-11-01T12:36:07.640Z,55.30
2018-11-01T12:38:35.794Z,54.40
2018-11-01T12:41:04.045Z,54.80
2018-11-01T12:43:32.331Z,54.50
2018-11-01T12:46:00.579Z,54.80
2018-11-01T12:48:29.614Z,54.90
2018-11-01T12:50:57.911Z,54.80
2018-11-01T12:53:26.131Z,54.80
2018-11-01T12:55:54.395Z,53.80
2018-11-01T12:58:23.490Z,54.10
2018-11-01T13:00:51.742Z,54.00
2018-11-01T13:03:20.009Z,54.40
2018-11-01T13:05:48.258Z,54.60
2018-11-01T13:08:16.526Z,54.20
2018-11-01T13:10:44.867Z,54.10
2018-11-01T13:13:13.051Z,53.60
2018-11-01T13:15:41.326Z,54.10
2018-11-01T13:18:09.617Z,53.40
2018-11-01T13:20:38.607Z,53.90
2018-11-01T13:23:06.862Z,53.00
2018-11-01T13:25:35.877Z,53.20
2018-11-01T13:28:04.155Z,53.20
2018-11-01T13:30:32.425Z,53.00
2018-11-01T13:33:00.689Z,53.10
2018-11-01T13:35:28.974Z,52.80
2018-11-01T13:37:57.190Z,52.40
2018-11-01T13:40:25.771Z,52.70
2018-11-01T13:42:53.825Z,53.00
2018-11-01T13:45:22.087Z,52.50
2018-11-01T13:47:50.956Z,52.30
2018-11-01T13:50:19.970Z,51.30
2018-11-01T13:52:48.222Z,51.20
2018-11-01T13:55:16.478Z,50.30
2018-11-01T13:57:45.914Z,50.50
2018-11-01T14:00:14.167Z,50.40
2018-11-01T14:02:43.212Z,50.80
2018-11-01T14:05:11.442Z,50.70
2018-11-01T14:07:39.721Z,49.40
2018-11-01T14:10:08.011Z,50.40
2018-11-01T14:12:36.265Z,49.70
2018-11-01T14:15:04.949Z,50.00
2018-11-01T14:17:33.585Z,48.20
2018-11-01T14:20:01.854Z,48.20
2018-11-01T14:22:30.110Z,47.40
2018-11-01T14:24:58.373Z,47.90
2018-11-01T14:27:28.091Z,46.70
2018-11-01T14:29:57.138Z,45.90
2018-11-01T14:32:25.402Z,45.90
2018-11-01T14:34:53.660Z,45.70
2018-11-01T14:37:21.989Z,46.00
2018-11-01T14:39:50.240Z,46.90
2018-11-01T14:42:19.236Z,49.10
2018-11-01T14:44:48.274Z,49.50
2018-11-01T14:47:16.532Z,49.40
2018-11-01T14:49:44.815Z,49.50
2018-11-01T14:52:13.334Z,50.10
2018-11-01T14:54:42.068Z,50.30
2018-11-01T14:57:10.265Z,51.80
2018-11-01T14:59:39.394Z,50.60
2018-11-01T15:02:06.217Z,50.90
2018-11-01T15:04:34.485Z,50.90
2018-11-01T15:07:02.731Z,51.70
2018-11-01T15:09:31.004Z,51.10
2018-11-01T15:11:59.306Z,51.40
2018-11-01T15:14:27.548Z,52.40
2018-11-01T15:16:55.833Z,52.20
2018-11-01T15:19:24.931Z,53.00
2018-11-01T15:21:53.120Z,53.00
2018-11-01T15:24:21.402Z,53.90
2018-11-01T15:26:49.648Z,53.70
2018-11-01T15:29:17.937Z,53.70
2018-11-01T15:31:46.167Z,54.20
2018-11-01T15:34:15.220Z,55.20
2018-11-01T15:36:43.475Z,55.10
2018-11-01T15:39:11.742Z,55.10
2018-11-01T15:41:39.993Z,55.30
2018-11-01T15:44:09.024Z,55.60
2018-11-01T15:46:37.261Z,55.50
2018-11-01T15:49:06.299Z,55.60
2018-11-01T15:51:34.543Z,55.60
2018-11-01T15:54:02.794Z,56.00
2018-11-01T15:56:31.227Z,56.40
2018-11-01T15:58:59.488Z,56.40
2018-11-01T16:01:27.743Z,56.60
2018-11-01T16:03:56.553Z,57.00
2018-11-01T16:06:24.733Z,56.90
2018-11-01T16:08:53.275Z,57.80
2018-11-01T16:11:22.306Z,58.40
2018-11-01T16:13:50.586Z,58.40
2018-11-01T16:16:18.825Z,58.40
2018-11-01T16:18:47.831Z,58.30
2018-11-01T16:21:16.103Z,58.20
2018-11-01T16:23:45.745Z,58.20
2018-11-01T16:26:14.020Z,58.90
2018-11-01T16:28:42.256Z,58.10
2018-11-01T16:31:10.515Z,58.10
2018-11-01T16:33:39.555Z,58.40
2018-11-01T16:36:07.797Z,58.10
2018-11-01T16:38:36.073Z,58.00
2018-11-01T16:41:05.980Z,58.50
2018-11-01T16:43:34.978Z,57.90
2018-11-01T16:46:04.422Z,58.30
2018-11-01T16:48:33.467Z,58.40
2018-11-01T16:51:02.560Z,58.40
2018-11-01T16:53:30.726Z,58.40
2018-11-01T16:55:59.744Z,58.40
2018-11-01T16:58:28.014Z,58.40
2018-11-01T17:00:56.286Z,58.40
2018-11-01T17:03:24.535Z,57.40
2018-11-01T17:05:53.765Z,57.90
2018-11-01T17:08:22.018Z,57.80
2018-11-01T17:10:50.254Z,58.00
2018-11-01T17:13:18.546Z,57.20
2018-11-01T17:15:46.775Z,57.50
2018-11-01T17:18:15.182Z,57.60
2018-11-01T17:20:43.553Z,58.10
2018-11-01T17:23:11.806Z,58.30
2018-11-01T17:25:40.079Z,58.60
2018-11-01T17:28:08.366Z,59.80
2018-11-01T17:30:36.607Z,58.80
2018-11-01T17:33:05.608Z,58.60
2018-11-01T17:35:33.877Z,58.60
2018-11-01T17:38:02.139Z,58.70
2018-11-01T17:40:31.153Z,58.20
2018-11-01T17:42:59.422Z,58.20
2018-11-01T17:45:27.664Z,59.20
2018-11-01T17:47:56.012Z,59.90
2018-11-01T17:50:24.273Z,60.10
2018-11-01T17:52:52.515Z,59.70
2018-11-01T17:55:21.554Z,60.30
2018-11-01T17:57:49.867Z,60.30
2018-11-01T18:00:18.105Z,60.50
2018-11-01T18:02:46.375Z,60.80
2018-11-01T18:05:14.601Z,61.20
2018-11-01T18:07:43.615Z,61.10
2018-11-01T18:10:13.143Z,61.00
2018-11-01T18:12:41.419Z,61.00
2018-11-01T18:15:09.692Z,61.10
2018-11-01T18:17:37.951Z,61.30
2018-11-01T18:20:06.199Z,61.50
2018-11-01T18:22:35.289Z,61.70
2018-11-01T18:25:04.312Z,61.50
2018-11-01T18:27:32.557Z,61.50
2018-11-01T18:30:01.654Z,61.40
2018-11-01T18:32:29.927Z,61.30
2018-11-01T18:34:58.127Z,61.30
2018-11-01T18:37:26.415Z,61.40
2018-11-01T18:39:54.739Z,61.40
2018-11-01T18:42:23.780Z,61.40
2018-11-01T18:44:52.026Z,61.40
2018-11-01T18:47:20.311Z,61.30
2018-11-01T18:49:49.346Z,61.30
2018-11-01T18:52:17.598Z,61.30
2018-11-01T18:54:45.891Z,61.00
2018-11-01T18:57:15.760Z,60.80
2018-11-01T18:59:44.796Z,61.00
2018-11-01T19:02:13.032Z,61.00
2018-11-01T19:04:41.314Z,60.70
2018-11-01T19:07:09.661Z,60.90
2018-11-01T19:09:37.863Z,60.60
2018-11-01T19:12:06.126Z,62.00
2018-11-01T19:14:34.407Z,61.50
2018-11-01T19:17:03.431Z,61.70
2018-11-01T19:19:31.717Z,61.50
2018-11-01T19:22:00.016Z,61.00
2018-11-01T19:24:28.233Z,61.00
2018-11-01T19:26:56.616Z,61.10
2018-11-01T19:29:25.575Z,62.50
2018-11-01T19:31:54.783Z,62.50
2018-11-01T19:34:23.901Z,63.00
2018-11-01T19:36:52.081Z,63.00
2018-11-01T19:39:20.654Z,63.20
2018-11-01T19:41:48.988Z,62.80
2018-11-01T19:44:17.273Z,63.40
2018-11-01T19:46:45.484Z,63.40
2018-11-01T19:49:13.763Z,63.40
2018-11-01T19:51:42.006Z,63.10
2018-11-01T19:54:11.108Z,61.80
2018-11-01T19:56:39.316Z,61.80
2018-11-01T19:59:07.578Z,62.50
2018-11-01T20:01:35.813Z,63.40
2018-11-01T20:04:04.874Z,63.20
2018-11-01T20:06:33.095Z,63.80
2018-11-01T20:09:02.271Z,63.70
2018-11-01T20:11:30.410Z,63.70
2018-11-01T20:13:58.668Z,63.50
2018-11-01T20:16:26.948Z,63.70
2018-11-01T20:18:55.286Z,63.90
2018-11-01T20:21:23.524Z,64.10
2018-11-01T20:23:52.132Z,63.50
2018-11-01T20:26:20.357Z,64.40
2018-11-01T20:28:48.627Z,63.80
2018-11-01T20:31:16.929Z,63.90
2018-11-01T20:33:46.015Z,63.70
2018-11-01T20:36:14.127Z,63.70
2018-11-01T20:38:43.259Z,63.70
2018-11-01T20:41:11.402Z,63.70
2018-11-01T20:43:40.466Z,63.90
2018-11-01T20:46:08.690Z,63.90
2018-11-01T20:48:36.927Z,63.60
2018-11-01T20:51:05.189Z,63.30
2018-11-01T20:53:33.448Z,63.30
2018-11-01T20:56:01.690Z,63.10
2018-11-01T20:58:29.948Z,63.20
2018-11-01T21:00:58.950Z,63.20
2018-11-01T21:03:27.554Z,63.20
2018-11-01T21:05:55.949Z,62.90
2018-11-01T21:08:24.272Z,63.10
2018-11-01T21:10:53.283Z,63.60
2018-11-01T21:13:21.444Z,63.50
2018-11-01T21:15:49.699Z,63.30
2018-11-01T21:18:18.737Z,63.50
2018-11-01T21:20:46.999Z,63.00
2018-11-01T21:23:15.267Z,63.20
2018-11-01T21:25:44.298Z,63.30
2018-11-01T21:28:12.821Z,63.50
2018-11-01T21:30:41.095Z,63.50
2018-11-01T21:33:09.326Z,64.50
2018-11-01T21:35:37.703Z,64.40
2018-11-01T21:38:05.930Z,64.50
2018-11-01T21:40:34.939Z,63.40
2018-11-01T21:43:03.214Z,63.40
2018-11-01T21:45:32.412Z,63.70
2018-11-01T21:48:01.404Z,63.30
2018-11-01T21:50:29.652Z,63.30
2018-11-01T21:52:58.785Z,63.50
2018-11-01T21:55:27.150Z,62.80
2018-11-01T21:57:56.510Z,63.30
2018-11-01T22:00:24.775Z,63.20
2018-11-01T22:02:53.011Z,63.30
2018-11-01T22:05:21.514Z,63.10
2018-11-01T22:07:49.754Z,63.50
2018-11-01T22:10:18.017Z,62.60
2018-11-01T22:12:47.049Z,63.10
2018-11-01T22:15:15.297Z,63.00
2018-11-01T22:17:43.552Z,63.10
2018-11-01T22:20:12.593Z,63.60
2018-11-01T22:22:40.821Z,63.60
2018-11-01T22:25:09.874Z,63.40
2018-11-01T22:27:38.112Z,63.40
2018-11-01T22:30:06.410Z,63.50
2018-11-01T22:32:34.650Z,63.60
2018-11-01T22:35:03.646Z,64.20
2018-11-01T22:37:31.906Z,64.20
2018-11-01T22:40:00.950Z,64.00
2018-11-01T22:42:29.204Z,63.90
2018-11-01T22:44:57.454Z,64.00
2018-11-01T22:47:26.466Z,64.30
2018-11-01T22:49:55.019Z,64.20
2018-11-01T22:52:24.274Z,63.80
2018-11-01T22:54:52.506Z,63.80
2018-11-01T22:57:21.596Z,64.00
2018-11-01T22:59:50.693Z,62.50
2018-11-01T23:02:18.859Z,62.50
2018-11-01T23:04:47.897Z,62.40
2018-11-01T23:07:16.215Z,62.40
2018-11-01T23:09:44.434Z,62.40
2018-11-01T23:12:13.007Z,62.30
2018-11-01T23:14:41.250Z,62.60
2018-11-01T23:17:09.487Z,62.10
2018-11-01T23:19:37.738Z,62.20
2018-11-01T23:22:05.986Z,61.90
2018-11-01T23:24:34.264Z,62.00
2018-11-01T23:27:03.281Z,62.50
2018-11-01T23:29:31.507Z,62.50
2018-11-01T23:31:59.750Z,63.30
2018-11-01T23:34:27.994Z,62.30
2018-11-01T23:37:02.305Z,61.70
2018-11-01T23:39:36.286Z,61.80
2018-11-01T23:42:11.013Z,62.30
2018-11-01T23:44:45.616Z,62.40
2018-11-01T23:47:21.209Z,61.80
2018-11-01T23:49:50.515Z,61.80
2018-11-01T23:52:18.758Z,61.20
2018-11-01T23:54:47.775Z,61.50
2018-11-01T23:57:16.132Z,61.50
2018-11-01T23:59:45.566Z,61.50
